createdAt,value
2019-01-25T00:03:47.797Z,96750.06
2019-01-25T00:08:43.952Z,96749.75
2019-01-25T00:13:42.657Z,96748.77
2019-01-25T00:18:39.975Z,96752.58
2019-01-25T00:23:36.339Z,96758.80
2019-01-25T00:28:32.277Z,96754.16
2019-01-25T00:33:30.381Z,96751.87
2019-01-25T00:38:27.700Z,96754.23
2019-01-25T00:43:26.626Z,96750.25
2019-01-25T00:48:25.977Z,96761.29
2019-01-25T00:53:26.204Z,96761.17
2019-01-25T00:58:22.488Z,96764.14
2019-01-25T01:03:18.462Z,96755.64
2019-01-25T01:08:14.456Z,96767.61
2019-01-25T01:13:10.701Z,96773.69
2019-01-25T01:18:07.854Z,96779.44
2019-01-25T01:23:05.258Z,96778.58
2019-01-25T01:28:01.574Z,96782.82
2019-01-25T01:33:00.033Z,96793.88
2019-01-25T01:37:56.434Z,96795.17
2019-01-25T01:42:53.179Z,96794.83
2019-01-25T01:47:55.355Z,96795.82
2019-01-25T01:52:52.736Z,96793.30
2019-01-25T01:57:58.389Z,96796.82
2019-01-25T02:02:54.398Z,96787.45
2019-01-25T02:07:53.627Z,96790.84
2019-01-25T02:12:50.960Z,96789.00
2019-01-25T02:17:48.615Z,96788.66
2019-01-25T02:22:47.674Z,96789.95
2019-01-25T02:27:45.079Z,96791.26
2019-01-25T02:32:41.965Z,96793.83
2019-01-25T02:37:38.238Z,96793.99
2019-01-25T02:42:35.067Z,96795.80
2019-01-25T02:47:32.915Z,96796.32
2019-01-25T02:52:30.194Z,96795.98
2019-01-25T02:57:26.552Z,96794.33
2019-01-25T03:02:23.751Z,96793.61
2019-01-25T03:07:20.069Z,96804.44
2019-01-25T03:12:16.570Z,96803.81
2019-01-25T03:17:12.763Z,96811.20
2019-01-25T03:22:09.113Z,96808.95
2019-01-25T03:27:05.550Z,96809.45
2019-01-25T03:32:02.934Z,96817.28
2019-01-25T03:37:00.173Z,96816.34
2019-01-25T03:41:57.188Z,96815.43
2019-01-25T03:46:53.237Z,96816.66
2019-01-25T03:51:49.191Z,96818.13
2019-01-25T03:56:47.970Z,96819.16
2019-01-25T04:01:44.014Z,96836.30
2019-01-25T04:06:43.112Z,96836.92
2019-01-25T04:11:39.269Z,96836.18
2019-01-25T04:16:35.165Z,96840.55
2019-01-25T04:21:31.910Z,96847.70
2019-01-25T04:26:28.641Z,96852.23
2019-01-25T04:31:28.705Z,96850.06
2019-01-25T04:36:24.615Z,96846.58
2019-01-25T04:41:21.340Z,96853.55
2019-01-25T04:46:17.143Z,96848.38
2019-01-25T04:51:13.062Z,96852.95
2019-01-25T04:56:09.271Z,96855.95
2019-01-25T05:01:15.844Z,96852.70
2019-01-25T05:06:14.966Z,96865.84
2019-01-25T05:11:33.814Z,96872.89
2019-01-25T05:16:31.159Z,96875.31
2019-01-25T05:21:29.246Z,96881.86
2019-01-25T05:26:28.348Z,96879.48
2019-01-25T05:31:30.885Z,96882.45
2019-01-25T05:36:27.678Z,96888.84
2019-01-25T05:41:28.617Z,96898.41
2019-01-25T05:46:27.031Z,96902.55
2019-01-25T05:51:34.549Z,96913.52
2019-01-25T05:56:33.776Z,96924.23
2019-01-25T06:01:40.533Z,96923.65
2019-01-25T06:06:44.021Z,96920.11
2019-01-25T06:11:41.704Z,96926.95
2019-01-25T06:16:49.411Z,96932.92
2019-01-25T06:22:49.764Z,96934.59
2019-01-25T06:47:47.509Z,96944.87
2019-01-25T06:53:42.633Z,96943.59
2019-01-25T06:59:05.450Z,96954.09
2019-01-25T07:10:13.022Z,96964.59
2019-01-25T07:27:40.790Z,96978.20
2019-01-25T07:32:57.268Z,96991.98
2019-01-25T07:37:57.766Z,96999.20
2019-01-25T07:43:05.349Z,97010.83
2019-01-25T07:49:31.485Z,97021.25
2019-01-25T07:55:02.770Z,97026.90
2019-01-25T08:17:52.881Z,97056.80
2019-01-25T08:23:11.817Z,97065.53
2019-01-25T08:28:25.857Z,97063.89
2019-01-25T08:33:28.025Z,97064.63
2019-01-25T08:38:24.006Z,97072.11
2019-01-25T08:43:32.865Z,97080.27
2019-01-25T08:49:35.172Z,97073.13
2019-01-25T08:54:31.111Z,97080.25
2019-01-25T08:59:27.166Z,97082.25
2019-01-25T09:04:26.354Z,97083.02
2019-01-25T09:09:25.791Z,97084.09
2019-01-25T09:14:23.207Z,97073.70
2019-01-25T09:20:00.187Z,97081.87
2019-01-25T09:25:04.513Z,97082.06
2019-01-25T09:30:03.005Z,97089.14
2019-01-25T09:35:07.839Z,97082.90
2019-01-25T09:40:04.004Z,97094.88
2019-01-25T09:45:06.029Z,97097.40
2019-01-25T09:50:01.892Z,97101.11
2019-01-25T09:54:58.036Z,97103.13
2019-01-25T10:00:08.215Z,97116.72
2019-01-25T10:05:13.335Z,97122.84
2019-01-25T10:10:12.498Z,97128.86
2019-01-25T10:15:12.271Z,97120.94
2019-01-25T10:20:11.605Z,97121.30
2019-01-25T10:25:12.423Z,97108.55
2019-01-25T10:30:17.288Z,97101.95
2019-01-25T10:35:23.711Z,97095.77
2019-01-25T10:40:22.362Z,97091.16
2019-01-25T10:45:44.521Z,97091.66
2019-01-25T10:50:42.787Z,97081.86
2019-01-25T10:55:39.147Z,97078.19
2019-01-25T11:00:38.194Z,97074.66
2019-01-25T11:05:40.536Z,97090.63
2019-01-25T11:10:37.841Z,97092.94
2019-01-25T11:15:39.536Z,97086.70
2019-01-25T11:20:35.413Z,97083.02
2019-01-25T11:25:35.518Z,97085.98
2019-01-25T11:30:31.468Z,97088.92
2019-01-25T11:35:29.955Z,97094.77
2019-01-25T11:40:32.207Z,97097.17
2019-01-25T11:45:37.160Z,97100.27
2019-01-25T11:50:35.145Z,97099.43
2019-01-25T11:55:31.036Z,97095.51
2019-01-25T12:00:33.303Z,97090.70
2019-01-25T12:05:29.449Z,97074.73
2019-01-25T12:10:38.225Z,97067.91
2019-01-25T12:15:34.352Z,97063.75
2019-01-25T12:21:31.535Z,97074.63
2019-01-25T12:26:56.978Z,97073.30
2019-01-25T12:31:53.360Z,97063.12
2019-01-25T12:36:54.322Z,97057.09
2019-01-25T12:41:54.239Z,97055.39
2019-01-25T12:46:58.762Z,97044.80
2019-01-25T12:52:08.306Z,97041.58
2019-01-25T12:57:19.455Z,97044.92
2019-01-25T13:02:26.517Z,97056.65
2019-01-25T13:07:25.568Z,97047.61
2019-01-25T13:12:37.661Z,97049.22
2019-01-25T13:17:49.009Z,97042.73
2019-01-25T13:22:52.831Z,97045.45
2019-01-25T13:27:50.946Z,97042.66
2019-01-25T13:32:46.995Z,97062.09
2019-01-25T13:38:45.763Z,97062.75
2019-01-25T13:43:45.866Z,97067.17
2019-01-25T13:48:43.284Z,97070.86
2019-01-25T13:53:39.262Z,97078.75
2019-01-25T13:58:35.251Z,97076.63
2019-01-25T14:03:31.326Z,97073.78
2019-01-25T14:08:29.306Z,97072.45
2019-01-25T14:13:34.302Z,97077.44
2019-01-25T14:18:33.892Z,97076.30
2019-01-25T14:23:30.139Z,97080.59
2019-01-25T14:28:26.137Z,97094.77
2019-01-25T14:33:22.386Z,97095.22
2019-01-25T14:38:24.481Z,97100.83
2019-01-25T14:44:03.256Z,97102.00
2019-01-25T14:49:02.602Z,97096.80
2019-01-25T14:54:02.036Z,97099.14
2019-01-25T14:58:58.185Z,97092.69
2019-01-25T15:03:54.358Z,97101.02
2019-01-25T15:08:57.200Z,97105.25
2019-01-25T15:14:02.285Z,97104.37
2019-01-25T15:19:07.984Z,97113.23
2019-01-25T15:24:18.423Z,97113.16
2019-01-25T15:29:16.849Z,97124.42
2019-01-25T15:34:17.885Z,97127.98
2019-01-25T15:39:19.871Z,97127.92
2019-01-25T15:44:27.252Z,97115.81
2019-01-25T15:49:21.001Z,97104.41
2019-01-25T15:54:17.306Z,97111.42
2019-01-25T15:59:51.455Z,97116.66
2019-01-25T16:04:47.716Z,97113.17
2019-01-25T16:11:03.837Z,97121.67
2019-01-25T16:16:17.350Z,97133.20
2019-01-25T16:21:15.247Z,97128.80
2019-01-25T16:26:23.676Z,97127.59
2019-01-25T16:31:24.529Z,97127.87
2019-01-25T16:36:40.774Z,97132.48
2019-01-25T16:41:46.867Z,97137.05
2019-01-25T16:46:50.526Z,97152.70
2019-01-25T16:52:50.306Z,97149.84
2019-01-25T16:58:01.276Z,97156.68
2019-01-25T17:03:18.092Z,97159.07
2019-01-25T17:08:16.335Z,97183.58
2019-01-25T17:14:06.448Z,97173.73
2019-01-25T17:19:39.664Z,97171.27
2019-01-25T17:24:44.547Z,97162.47
2019-01-25T17:30:21.356Z,97151.17
2019-01-25T17:42:13.485Z,97147.98
2019-01-25T17:55:01.971Z,97137.97
2019-01-25T18:26:06.343Z,97167.82
2019-01-25T18:31:32.216Z,97181.17
2019-01-25T18:36:28.941Z,97188.96
2019-01-25T18:41:30.315Z,97200.00
2019-01-25T18:46:41.360Z,97201.73
2019-01-25T18:58:10.900Z,97198.06
2019-01-25T19:03:32.615Z,97192.70
2019-01-25T19:08:28.779Z,97200.22
2019-01-25T19:13:39.458Z,97190.25
2019-01-25T19:18:37.400Z,97193.05
2019-01-25T19:23:42.208Z,97201.78
2019-01-25T19:28:41.045Z,97213.30
2019-01-25T19:33:48.718Z,97226.14
2019-01-25T19:39:07.269Z,97220.03
2019-01-25T19:45:21.500Z,97209.75
2019-01-25T19:57:58.087Z,97196.90
2019-01-25T20:03:39.792Z,97205.75
2019-01-25T20:08:54.619Z,97197.39
2019-01-25T20:13:51.247Z,97193.05
2019-01-25T20:19:02.827Z,97164.61
2019-01-25T20:24:04.067Z,97172.45
2019-01-25T20:29:16.085Z,97173.78
2019-01-25T20:34:53.781Z,97181.94
2019-01-25T20:41:03.709Z,97182.38
2019-01-25T20:46:35.303Z,97192.12
2019-01-25T20:51:37.193Z,97185.64
2019-01-25T20:56:37.785Z,97185.95
2019-01-25T21:01:43.398Z,97182.55
2019-01-25T21:06:53.857Z,97191.84
2019-01-25T21:12:28.154Z,97193.95
2019-01-25T21:18:27.909Z,97189.52
2019-01-25T21:23:24.255Z,97200.16
2019-01-25T21:28:23.570Z,97203.95
2019-01-25T21:33:24.607Z,97198.71
2019-01-25T21:38:22.786Z,97204.75
2019-01-25T21:43:18.797Z,97193.67
2019-01-25T21:48:19.110Z,97191.84
2019-01-25T21:53:15.532Z,97192.98
2019-01-25T21:58:14.710Z,97190.16
2019-01-25T22:03:13.743Z,97195.31
2019-01-25T22:08:09.990Z,97197.69
2019-01-25T22:13:09.399Z,97200.55
2019-01-25T22:18:09.019Z,97189.72
2019-01-25T22:35:44.930Z,97177.94
2019-01-25T22:42:21.415Z,97181.02
2019-01-25T22:53:54.408Z,97182.84
2019-01-25T22:59:01.387Z,97167.27
2019-01-25T23:04:46.703Z,97165.09
2019-01-25T23:10:29.395Z,97162.02
2019-01-25T23:15:27.444Z,97154.36
2019-01-25T23:20:36.223Z,97152.91
2019-01-25T23:25:38.260Z,97147.72
2019-01-25T23:30:34.506Z,97148.95
2019-01-25T23:35:33.927Z,97135.98
2019-01-25T23:40:35.265Z,97141.41
2019-01-25T23:45:34.606Z,97147.50
2019-01-25T23:50:33.294Z,97140.23
2019-01-25T23:55:29.440Z,97129.44
